createdAt,value
2018-08-24T00:00:02.300Z,96.60
2018-08-24T00:02:30.524Z,96.50
2018-08-24T00:04:58.703Z,96.40
2018-08-24T00:07:26.910Z,96.40
2018-08-24T00:09:55.093Z,96.20
2018-08-24T00:12:23.273Z,96.00
2018-08-24T00:14:51.668Z,96.20
2018-08-24T00:17:25.265Z,96.20
2018-08-24T00:19:53.440Z,95.80
2018-08-24T00:22:21.697Z,95.60
2018-08-24T00:24:49.866Z,95.50
2018-08-24T00:27:18.048Z,95.40
2018-08-24T00:29:46.233Z,95.30
2018-08-24T00:32:14.429Z,95.30
2018-08-24T00:34:42.625Z,95.30
2018-08-24T00:37:11.062Z,95.10
2018-08-24T00:39:42.341Z,95.00
2018-08-24T00:42:11.187Z,94.90
2018-08-24T00:44:39.926Z,95.00
2018-08-24T00:47:08.098Z,95.20
2018-08-24T00:49:36.297Z,95.40
2018-08-24T00:52:04.473Z,95.40
2018-08-24T00:54:32.708Z,95.40
2018-08-24T00:57:00.853Z,95.50
2018-08-24T00:59:29.406Z,95.50
2018-08-24T01:01:57.585Z,95.60
2018-08-24T01:04:31.121Z,95.60
2018-08-24T01:06:59.318Z,95.80
2018-08-24T01:09:27.526Z,95.80
2018-08-24T01:12:00.949Z,96.00
2018-08-24T01:14:29.153Z,96.10
2018-08-24T01:19:04.089Z,96.00
2018-08-24T01:21:32.345Z,96.10
2018-08-24T01:24:00.541Z,96.70
2018-08-24T01:26:28.744Z,96.90
2018-08-24T01:28:56.917Z,96.90
2018-08-24T01:31:25.109Z,97.20
2018-08-24T01:33:53.296Z,96.70
2018-08-24T01:36:21.478Z,96.70
2018-08-24T01:38:49.863Z,96.80
2018-08-24T01:41:18.044Z,96.80
2018-08-24T01:43:46.529Z,97.10
2018-08-24T01:46:15.669Z,97.60
2018-08-24T01:48:43.844Z,97.80
2018-08-24T01:51:12.069Z,98.00
2018-08-24T01:53:40.253Z,98.10
2018-08-24T01:56:08.429Z,98.20
2018-08-24T01:58:36.656Z,98.40
2018-08-24T02:01:04.930Z,98.60
2018-08-24T02:03:33.111Z,98.70
2018-08-24T02:06:05.777Z,98.70
2018-08-24T02:08:34.794Z,98.80
2018-08-24T02:11:07.401Z,98.80
2018-08-24T02:13:41.095Z,99.00
2018-08-24T02:16:09.281Z,99.00
2018-08-24T02:18:42.957Z,98.90
2018-08-24T02:21:16.574Z,98.90
2018-08-24T02:23:44.773Z,98.90
2018-08-24T02:26:13.225Z,98.80
2018-08-24T02:28:41.409Z,98.60
2018-08-24T02:31:09.632Z,98.50
2018-08-24T02:33:39.460Z,98.30
2018-08-24T02:36:08.829Z,98.30
2018-08-24T02:38:37.454Z,98.80
2018-08-24T02:41:05.654Z,98.50
2018-08-24T02:43:33.829Z,98.50
2018-08-24T02:46:02.024Z,98.70
2018-08-24T02:48:30.793Z,98.70
2018-08-24T02:50:58.986Z,99.00
2018-08-24T02:53:27.217Z,99.30
2018-08-24T02:55:55.412Z,99.40
2018-08-24T02:58:23.601Z,99.50
2018-08-24T03:00:51.774Z,99.60
2018-08-24T03:03:19.996Z,99.60
2018-08-24T03:05:48.211Z,99.90
2018-08-24T03:08:16.389Z,99.90
2018-08-24T03:10:44.673Z,99.90
2018-08-24T03:13:12.873Z,99.90
2018-08-24T03:15:41.061Z,99.90
2018-08-24T03:18:09.257Z,99.90
2018-08-24T03:20:37.434Z,99.90
2018-08-24T03:23:05.861Z,99.90
2018-08-24T03:25:34.081Z,99.90
2018-08-24T03:28:02.277Z,99.90
2018-08-24T03:30:30.469Z,99.90
2018-08-24T03:32:58.845Z,99.90
2018-08-24T03:35:27.037Z,99.90
2018-08-24T03:37:55.245Z,99.90
2018-08-24T03:40:23.467Z,99.90
2018-08-24T03:42:51.898Z,99.90
2018-08-24T03:45:20.089Z,99.90
2018-08-24T03:47:48.271Z,99.90
2018-08-24T03:50:16.472Z,99.90
2018-08-24T03:52:44.674Z,99.90
2018-08-24T03:55:13.029Z,99.90
2018-08-24T03:57:41.400Z,99.90
2018-08-24T04:00:13.965Z,99.90
2018-08-24T04:02:42.461Z,99.90
2018-08-24T04:05:10.646Z,99.90
2018-08-24T04:07:38.819Z,99.90
2018-08-24T04:10:07.321Z,99.90
2018-08-24T04:12:35.498Z,99.90
2018-08-24T04:15:03.713Z,99.90
2018-08-24T04:17:37.365Z,99.90
2018-08-24T04:20:05.645Z,99.90
2018-08-24T04:22:33.827Z,99.90
2018-08-24T04:25:05.297Z,99.90
2018-08-24T04:27:33.493Z,99.90
2018-08-24T04:30:01.679Z,99.90
2018-08-24T04:32:29.865Z,99.90
2018-08-24T04:34:58.080Z,99.90
2018-08-24T04:37:26.249Z,99.90
2018-08-24T04:39:54.436Z,99.90
2018-08-24T04:42:22.675Z,99.90
2018-08-24T04:44:50.885Z,99.90
2018-08-24T04:47:19.065Z,99.90
2018-08-24T04:49:47.285Z,99.90
2018-08-24T04:52:15.562Z,99.90
2018-08-24T04:54:43.815Z,99.90
2018-08-24T04:57:11.990Z,99.90
2018-08-24T04:59:40.393Z,99.90
2018-08-24T05:02:08.589Z,99.90
2018-08-24T05:04:36.805Z,99.90
2018-08-24T05:07:05.673Z,99.90
2018-08-24T05:09:33.877Z,99.90
2018-08-24T05:12:02.061Z,99.90
2018-08-24T05:14:30.253Z,99.90
2018-08-24T05:16:58.529Z,99.90
2018-08-24T05:19:26.699Z,99.90
2018-08-24T05:21:55.159Z,99.90
2018-08-24T05:24:23.428Z,99.90
2018-08-24T05:26:51.577Z,99.90
2018-08-24T05:29:19.746Z,99.90
2018-08-24T05:31:47.913Z,99.90
2018-08-24T05:34:16.129Z,99.90
2018-08-24T05:36:44.401Z,99.90
2018-08-24T05:39:12.593Z,99.90
2018-08-24T05:41:40.781Z,99.90
2018-08-24T05:44:09.066Z,99.90
2018-08-24T05:46:37.240Z,99.90
2018-08-24T05:49:05.435Z,99.90
2018-08-24T05:51:33.635Z,99.90
2018-08-24T05:54:01.829Z,99.90
2018-08-24T05:56:30.237Z,99.90
2018-08-24T05:58:58.421Z,99.90
2018-08-24T06:01:26.610Z,99.60
2018-08-24T06:03:54.811Z,99.40
2018-08-24T06:06:23.272Z,99.00
2018-08-24T06:08:56.839Z,98.80
2018-08-24T06:11:25.019Z,98.40
2018-08-24T06:13:53.197Z,98.40
2018-08-24T06:16:21.536Z,97.80
2018-08-24T06:18:49.740Z,97.40
2018-08-24T06:21:17.917Z,96.90
2018-08-24T06:23:47.116Z,96.30
2018-08-24T06:26:15.496Z,96.00
2018-08-24T06:28:43.897Z,95.70
2018-08-24T06:31:12.145Z,95.60
2018-08-24T06:33:40.354Z,95.50
2018-08-24T06:36:08.533Z,95.20
2018-08-24T06:38:36.805Z,94.70
2018-08-24T06:41:05.297Z,94.30
2018-08-24T06:43:33.466Z,94.10
2018-08-24T06:46:01.907Z,93.80
2018-08-24T06:48:30.105Z,93.60
2018-08-24T06:50:59.256Z,93.60
2018-08-24T06:53:28.118Z,93.60
2018-08-24T06:55:56.257Z,93.60
2018-08-24T06:58:24.523Z,93.50
2018-08-24T07:00:52.796Z,93.50
2018-08-24T07:03:21.182Z,93.80
2018-08-24T07:05:49.441Z,94.30
2018-08-24T07:08:17.655Z,94.60
2018-08-24T07:10:45.847Z,94.30
2018-08-24T07:13:14.291Z,94.00
2018-08-24T07:15:42.500Z,93.80
2018-08-24T07:18:10.749Z,93.30
2018-08-24T07:20:39.009Z,92.90
2018-08-24T07:23:07.196Z,92.80
2018-08-24T07:25:35.381Z,92.50
2018-08-24T07:28:03.577Z,92.40
2018-08-24T07:30:31.810Z,92.10
2018-08-24T07:33:00.027Z,91.80
2018-08-24T07:35:28.290Z,91.60
2018-08-24T07:37:56.532Z,91.20
2018-08-24T07:40:24.877Z,90.90
2018-08-24T07:42:53.084Z,90.60
2018-08-24T07:45:21.313Z,90.20
2018-08-24T07:47:49.514Z,90.00
2018-08-24T07:50:17.713Z,88.10
2018-08-24T07:52:45.910Z,87.30
2018-08-24T07:55:14.127Z,87.20
2018-08-24T07:57:42.452Z,87.30
2018-08-24T08:00:10.818Z,87.80
2018-08-24T08:02:46.010Z,87.00
2018-08-24T08:05:14.949Z,87.00
2018-08-24T08:07:43.149Z,86.90
2018-08-24T08:10:11.340Z,86.80
2018-08-24T08:12:39.644Z,86.60
2018-08-24T08:15:08.837Z,86.70
2018-08-24T08:17:38.054Z,86.90
2018-08-24T08:20:06.689Z,86.60
2018-08-24T08:22:34.893Z,86.00
2018-08-24T08:25:03.125Z,86.10
2018-08-24T08:27:31.809Z,85.50
2018-08-24T08:30:02.166Z,85.00
2018-08-24T08:32:31.105Z,84.10
2018-08-24T08:34:59.398Z,82.00
2018-08-24T08:37:27.659Z,80.40
2018-08-24T08:40:01.428Z,79.80
2018-08-24T08:42:30.017Z,78.40
2018-08-24T08:44:58.631Z,77.80
2018-08-24T08:47:26.818Z,77.30
2018-08-24T08:49:56.076Z,77.80
2018-08-24T08:52:24.309Z,78.50
2018-08-24T08:54:52.602Z,78.60
2018-08-24T08:57:21.398Z,78.50
2018-08-24T08:59:49.672Z,79.00
2018-08-24T09:02:17.886Z,78.30
2018-08-24T09:04:46.077Z,76.40
2018-08-24T09:07:14.293Z,75.50
2018-08-24T09:09:42.525Z,74.70
2018-08-24T09:12:10.946Z,74.90
2018-08-24T09:14:39.532Z,75.50
2018-08-24T09:17:13.033Z,75.60
2018-08-24T09:19:46.891Z,76.00
2018-08-24T09:22:20.313Z,75.20
2018-08-24T09:24:53.817Z,73.30
2018-08-24T09:27:27.325Z,72.20
2018-08-24T09:29:57.998Z,72.20
2018-08-24T09:32:26.273Z,72.60
2018-08-24T09:34:54.415Z,72.70
2018-08-24T09:37:28.002Z,73.90
2018-08-24T09:39:56.381Z,74.60
2018-08-24T09:42:24.750Z,75.70
2018-08-24T09:44:52.993Z,76.00
2018-08-24T09:47:26.500Z,75.50
2018-08-24T09:49:54.716Z,75.40
2018-08-24T09:52:27.150Z,76.30
2018-08-24T09:54:56.113Z,78.20
2018-08-24T09:57:24.456Z,79.50
2018-08-24T09:59:53.315Z,80.90
2018-08-24T10:02:24.295Z,82.70
2018-08-24T10:04:57.924Z,83.40
2018-08-24T10:07:31.451Z,82.90
2018-08-24T10:09:59.830Z,84.50
2018-08-24T10:12:32.298Z,86.10
2018-08-24T10:15:00.866Z,87.10
2018-08-24T10:17:29.374Z,89.60
2018-08-24T10:19:57.801Z,90.30
2018-08-24T10:22:26.198Z,91.00
2018-08-24T10:24:55.018Z,91.70
2018-08-24T10:27:23.500Z,92.50
2018-08-24T10:29:51.798Z,92.70
2018-08-24T10:32:19.952Z,92.60
2018-08-24T10:34:48.232Z,92.70
2018-08-24T10:37:16.429Z,92.20
2018-08-24T10:39:44.780Z,92.00
2018-08-24T10:42:13.185Z,91.40
2018-08-24T10:44:41.435Z,91.00
2018-08-24T10:47:09.665Z,90.80
2018-08-24T10:49:37.848Z,90.80
2018-08-24T10:52:06.119Z,90.60
2018-08-24T10:54:34.331Z,90.90
2018-08-24T10:57:02.760Z,91.60
2018-08-24T10:59:30.971Z,94.40
2018-08-24T11:01:59.263Z,96.60
2018-08-24T11:04:27.749Z,98.10
2018-08-24T11:06:56.026Z,99.90
2018-08-24T11:09:24.290Z,99.90
2018-08-24T11:11:52.510Z,99.90
2018-08-24T11:14:20.863Z,99.90
2018-08-24T11:16:49.233Z,99.90
2018-08-24T11:19:17.429Z,99.90
2018-08-24T11:21:45.665Z,99.90
2018-08-24T11:24:13.885Z,99.90
2018-08-24T11:26:42.186Z,99.90
2018-08-24T11:29:10.369Z,99.90
2018-08-24T11:31:38.601Z,99.90
2018-08-24T11:34:06.980Z,99.90
2018-08-24T11:36:35.091Z,99.90
2018-08-24T11:39:04.453Z,99.90
2018-08-24T11:41:32.693Z,99.90
2018-08-24T11:44:00.929Z,99.90
2018-08-24T11:46:29.336Z,99.90
2018-08-24T11:48:57.558Z,99.90
2018-08-24T11:51:25.925Z,99.90
2018-08-24T11:53:54.182Z,99.90
2018-08-24T11:56:22.340Z,99.90
2018-08-24T11:58:50.570Z,99.90
2018-08-24T12:01:18.826Z,99.90
2018-08-24T12:03:47.129Z,99.90
2018-08-24T12:06:15.333Z,99.90
2018-08-24T12:08:43.580Z,99.90
2018-08-24T12:11:12.058Z,99.90
2018-08-24T12:13:40.308Z,99.90
2018-08-24T12:16:08.519Z,99.90
2018-08-24T12:18:36.778Z,99.90
2018-08-24T12:21:05.029Z,96.40
2018-08-24T12:23:33.216Z,90.10
2018-08-24T12:26:01.423Z,85.90
2018-08-24T12:28:29.652Z,80.40
2018-08-24T12:30:57.875Z,68.10
2018-08-24T12:33:26.646Z,57.90
2018-08-24T12:35:54.821Z,53.10
2018-08-24T12:38:23.070Z,52.10
2018-08-24T12:40:51.529Z,49.70
2018-08-24T12:43:19.771Z,47.30
2018-08-24T12:45:47.974Z,49.40
2018-08-24T12:48:16.213Z,49.90
2018-08-24T12:50:45.339Z,50.50
2018-08-24T12:53:13.552Z,52.50
2018-08-24T12:55:42.102Z,54.50
2018-08-24T12:58:10.325Z,57.10
2018-08-24T13:00:38.590Z,60.00
2018-08-24T13:03:06.789Z,61.50
2018-08-24T13:05:35.005Z,63.10
2018-08-24T13:08:03.390Z,65.50
2018-08-24T13:10:31.605Z,66.90
2018-08-24T13:12:59.808Z,66.90
2018-08-24T13:15:28.226Z,66.10
2018-08-24T13:17:56.446Z,63.10
2018-08-24T13:20:24.685Z,61.70
2018-08-24T13:22:52.905Z,61.20
2018-08-24T13:25:21.458Z,60.90
2018-08-24T13:27:49.666Z,61.50
2018-08-24T13:30:17.905Z,61.90
2018-08-24T13:32:46.162Z,63.40
2018-08-24T13:35:14.385Z,63.30
2018-08-24T13:37:42.594Z,63.90
2018-08-24T13:40:10.918Z,63.20
2018-08-24T13:42:39.113Z,61.00
2018-08-24T13:45:07.597Z,57.80
2018-08-24T13:47:36.013Z,56.50
2018-08-24T13:50:04.732Z,54.20
2018-08-24T13:52:32.922Z,53.40
2018-08-24T13:55:01.194Z,53.70
2018-08-24T13:57:29.461Z,52.50
2018-08-24T13:59:57.724Z,50.20
2018-08-24T14:02:26.023Z,48.80
2018-08-24T14:04:54.236Z,48.70
2018-08-24T14:07:22.467Z,48.70
2018-08-24T14:09:50.665Z,49.20
2018-08-24T14:12:18.922Z,49.40
2018-08-24T14:14:47.290Z,50.40
2018-08-24T14:17:15.485Z,50.90
2018-08-24T14:19:44.539Z,50.90
2018-08-24T14:22:12.741Z,52.00
2018-08-24T14:24:41.755Z,52.20
2018-08-24T14:27:09.953Z,52.40
2018-08-24T14:29:38.177Z,52.00
2018-08-24T14:32:06.756Z,51.00
2018-08-24T14:34:34.926Z,48.40
2018-08-24T14:37:03.129Z,45.00
2018-08-24T14:39:31.325Z,41.80
2018-08-24T14:41:59.573Z,41.10
2018-08-24T14:44:27.785Z,41.70
2018-08-24T14:46:56.326Z,43.30
2018-08-24T14:49:24.513Z,44.50
2018-08-24T14:51:52.763Z,45.30
2018-08-24T14:54:20.957Z,48.00
2018-08-24T14:56:49.169Z,50.80
2018-08-24T14:59:17.421Z,52.60
2018-08-24T15:01:45.637Z,62.60
2018-08-24T15:04:13.853Z,93.00
2018-08-24T15:06:42.166Z,99.90
2018-08-24T15:09:11.837Z,99.90
2018-08-24T15:11:40.489Z,99.90
2018-08-24T15:14:09.105Z,99.90
2018-08-24T15:16:37.378Z,99.90
2018-08-24T15:20:35.175Z,99.90
2018-08-24T15:23:03.465Z,99.90
2018-08-24T15:25:31.759Z,99.90
2018-08-24T15:27:59.999Z,99.90
2018-08-24T15:30:28.588Z,99.90
2018-08-24T15:32:56.823Z,99.90
2018-08-24T15:35:25.123Z,99.90
2018-08-24T15:37:53.339Z,99.90
2018-08-24T15:40:21.566Z,99.90
2018-08-24T15:42:50.043Z,99.90
2018-08-24T15:45:18.244Z,99.90
2018-08-24T15:47:46.474Z,99.90
2018-08-24T15:50:14.753Z,99.90
2018-08-24T15:52:43.267Z,99.90
2018-08-24T15:55:11.499Z,99.90
2018-08-24T15:57:39.805Z,99.90
2018-08-24T16:00:08.107Z,99.90
2018-08-24T16:02:36.334Z,99.90
2018-08-24T16:05:04.653Z,99.90
2018-08-24T16:07:37.256Z,99.90
2018-08-24T16:10:06.095Z,99.90
2018-08-24T16:12:34.326Z,99.90
2018-08-24T16:15:02.700Z,99.90
2018-08-24T16:17:30.938Z,99.90
2018-08-24T16:19:59.555Z,99.90
2018-08-24T16:22:27.802Z,99.90
2018-08-24T16:24:56.036Z,99.90
2018-08-24T16:27:25.083Z,99.90
2018-08-24T16:29:55.567Z,99.90
2018-08-24T16:32:23.818Z,99.90
2018-08-24T16:34:52.158Z,99.90
2018-08-24T16:37:20.902Z,99.90
2018-08-24T16:39:49.181Z,99.90
2018-08-24T16:42:17.488Z,99.90
2018-08-24T16:44:46.117Z,99.90
2018-08-24T16:47:14.334Z,99.90
2018-08-24T16:49:42.571Z,99.90
2018-08-24T16:52:10.973Z,99.90
2018-08-24T16:54:39.210Z,99.90
2018-08-24T16:57:07.767Z,99.90
2018-08-24T16:59:36.310Z,99.90
2018-08-24T17:02:04.971Z,99.90
2018-08-24T17:04:33.202Z,99.90
2018-08-24T17:07:01.432Z,99.90
2018-08-24T17:09:29.649Z,99.90
2018-08-24T17:11:58.130Z,99.90
2018-08-24T17:14:26.355Z,99.90
2018-08-24T17:16:54.564Z,99.90
2018-08-24T17:19:22.763Z,99.90
2018-08-24T17:21:51.035Z,99.90
2018-08-24T17:24:19.253Z,99.90
2018-08-24T17:26:47.472Z,99.90
2018-08-24T17:29:15.856Z,99.90
2018-08-24T17:31:44.234Z,99.90
2018-08-24T17:34:12.445Z,99.90
2018-08-24T17:36:40.653Z,99.90
2018-08-24T17:39:10.101Z,99.90
2018-08-24T17:41:38.332Z,99.90
2018-08-24T17:44:06.792Z,99.90
2018-08-24T17:46:35.013Z,99.90
2018-08-24T17:49:03.461Z,99.90
2018-08-24T17:51:31.681Z,99.90
2018-08-24T17:53:59.874Z,99.90
2018-08-24T17:56:28.080Z,99.90
2018-08-24T17:58:56.330Z,99.90
2018-08-24T18:01:24.615Z,99.90
2018-08-24T18:03:52.808Z,99.90
2018-08-24T18:06:21.438Z,99.90
2018-08-24T18:08:49.737Z,99.90
2018-08-24T18:11:17.967Z,99.90
2018-08-24T18:13:46.204Z,99.90
2018-08-24T18:16:14.389Z,99.90
2018-08-24T18:18:42.596Z,99.90
2018-08-24T18:21:10.849Z,99.90
2018-08-24T18:23:39.174Z,99.90
2018-08-24T18:26:08.218Z,99.90
2018-08-24T18:28:36.413Z,99.90
2018-08-24T18:31:04.977Z,99.90
2018-08-24T18:33:33.168Z,99.90
2018-08-24T18:36:01.726Z,99.90
2018-08-24T18:38:29.942Z,99.90
2018-08-24T18:40:58.218Z,99.90
2018-08-24T18:43:26.909Z,99.90
2018-08-24T18:45:55.184Z,99.90
2018-08-24T18:48:23.381Z,99.90
2018-08-24T18:50:51.733Z,99.90
2018-08-24T18:53:21.037Z,99.90
2018-08-24T18:55:49.273Z,99.90
2018-08-24T18:58:17.606Z,99.90
2018-08-24T19:00:46.014Z,99.90
2018-08-24T19:03:14.279Z,99.90
2018-08-24T19:05:42.527Z,99.90
2018-08-24T19:08:11.945Z,99.90
2018-08-24T19:10:45.627Z,99.90
2018-08-24T19:13:15.904Z,99.90
2018-08-24T19:15:45.125Z,99.90
2018-08-24T19:18:18.639Z,99.90
2018-08-24T19:22:16.357Z,99.90
2018-08-24T19:24:44.596Z,99.90
2018-08-24T19:27:12.951Z,99.90
2018-08-24T19:29:46.331Z,99.90
2018-08-24T19:32:14.610Z,99.90
2018-08-24T19:34:42.849Z,99.90
2018-08-24T19:37:11.145Z,99.90
2018-08-24T19:39:39.392Z,99.90
2018-08-24T19:42:12.921Z,99.90
2018-08-24T19:44:41.350Z,99.90
2018-08-24T19:47:13.782Z,99.90
2018-08-24T19:49:42.062Z,99.90
2018-08-24T19:52:11.486Z,99.90
2018-08-24T19:54:39.713Z,99.90
2018-08-24T19:57:13.433Z,99.90
2018-08-24T19:59:41.669Z,99.90
2018-08-24T20:02:09.993Z,99.90
2018-08-24T20:04:38.249Z,99.90
2018-08-24T20:07:11.663Z,99.90
2018-08-24T20:10:15.062Z,99.90
2018-08-24T20:12:43.696Z,99.90
2018-08-24T20:15:17.198Z,99.90
2018-08-24T20:17:45.407Z,99.90
2018-08-24T20:20:13.701Z,99.90
2018-08-24T20:22:41.923Z,99.90
2018-08-24T20:25:10.137Z,99.90
2018-08-24T20:27:38.354Z,99.90
2018-08-24T20:30:07.468Z,99.90
2018-08-24T20:32:35.749Z,99.90
2018-08-24T20:35:04.328Z,99.90
2018-08-24T20:37:32.554Z,99.90
2018-08-24T20:40:00.811Z,99.90
2018-08-24T20:42:29.002Z,99.90
2018-08-24T20:44:57.200Z,99.90
2018-08-24T20:47:25.609Z,99.90
2018-08-24T20:49:53.646Z,99.90
2018-08-24T20:52:22.876Z,99.90
2018-08-24T20:54:51.089Z,99.90
2018-08-24T20:57:19.344Z,99.90
2018-08-24T20:59:47.536Z,99.90
2018-08-24T21:02:15.784Z,99.90
2018-08-24T21:04:43.997Z,99.90
2018-08-24T21:07:12.200Z,99.90
2018-08-24T21:09:40.400Z,99.90
2018-08-24T21:12:08.616Z,99.90
2018-08-24T21:14:36.917Z,99.90
2018-08-24T21:17:05.051Z,99.90
2018-08-24T21:19:33.515Z,99.90
2018-08-24T21:22:01.713Z,99.90
2018-08-24T21:24:29.932Z,99.90
2018-08-24T21:26:58.132Z,99.90
2018-08-24T21:29:26.334Z,99.90
2018-08-24T21:31:54.553Z,99.90
2018-08-24T21:34:22.765Z,99.90
2018-08-24T21:36:50.957Z,99.90
2018-08-24T21:39:19.213Z,99.90
2018-08-24T21:41:47.708Z,99.90
2018-08-24T21:44:15.918Z,99.90
2018-08-24T21:46:44.145Z,99.90
2018-08-24T21:49:12.365Z,99.90
2018-08-24T21:51:40.613Z,99.90
2018-08-24T21:54:08.864Z,99.90
2018-08-24T21:56:37.061Z,99.90
2018-08-24T21:59:05.353Z,99.90
2018-08-24T22:01:33.553Z,99.90
2018-08-24T22:04:01.901Z,99.90
2018-08-24T22:06:30.145Z,99.90
2018-08-24T22:08:58.373Z,99.90
2018-08-24T22:11:26.591Z,99.90
2018-08-24T22:13:54.801Z,99.90
2018-08-24T22:16:23.074Z,99.90
2018-08-24T22:18:51.323Z,99.90
2018-08-24T22:21:19.525Z,99.90
2018-08-24T22:23:47.789Z,99.90
2018-08-24T22:26:16.074Z,99.90
2018-08-24T22:28:44.321Z,99.90
2018-08-24T22:31:12.602Z,99.90
2018-08-24T22:33:40.822Z,99.90
2018-08-24T22:36:09.049Z,99.90
2018-08-24T22:38:37.352Z,99.90
2018-08-24T22:41:06.130Z,99.90
2018-08-24T22:43:35.804Z,99.90
2018-08-24T22:46:04.553Z,99.90
2018-08-24T22:48:33.249Z,99.90
2018-08-24T22:51:01.585Z,99.90
2018-08-24T22:53:29.793Z,99.90
2018-08-24T22:55:57.973Z,99.90
2018-08-24T22:58:26.198Z,99.90
2018-08-24T23:00:54.385Z,99.90
2018-08-24T23:03:22.629Z,99.90
2018-08-24T23:05:50.861Z,99.90
2018-08-24T23:08:19.105Z,99.90
2018-08-24T23:10:47.493Z,99.90
2018-08-24T23:13:15.717Z,99.90
2018-08-24T23:15:43.921Z,99.90
2018-08-24T23:18:12.105Z,99.90
2018-08-24T23:20:40.329Z,99.90
2018-08-24T23:23:08.553Z,99.90
2018-08-24T23:25:36.757Z,99.90
2018-08-24T23:28:05.151Z,99.90
2018-08-24T23:30:33.350Z,99.90
2018-08-24T23:33:01.558Z,99.90
2018-08-24T23:35:29.828Z,99.90
2018-08-24T23:37:58.105Z,99.90
2018-08-24T23:40:26.317Z,99.90
2018-08-24T23:42:54.554Z,99.90
2018-08-24T23:45:22.753Z,99.90
2018-08-24T23:47:50.965Z,99.90
2018-08-24T23:50:19.190Z,99.90
2018-08-24T23:52:47.481Z,99.90
2018-08-24T23:55:15.717Z,99.90
2018-08-24T23:57:43.949Z,99.90
